New Franklin, Ohio
Current Conditions -  °F | °C
As of 5:51 AM on Monday 29 Dec 2014 (Local Time) from KCAK Reporting Station
Haze Haze  
Wind Chill: 18°   Ceiling: Unl
Heat Index: 24°   Visibility: 6mi
Dew Point: 22°   Wind: 5mph
Humidity: 91%   Direction: 330°NNW
Pressure: 30.18"   Gusts: NA
Location:  40.7427°N, 81.0929°W
Report Text: KCAK 291051Z 33004KT 6SM BR CLR M04/M06 A3018 RMK AO2 SLP232 T10441056
Loading
Personal Weather Stations






























Interactive Weather Map New forecast layout! Learn more

10-Day Weather Forecast

Advertisements
Track Severe Weather on mobile